createdAt,value
2019-02-24T00:00:04.793Z,81.86
2019-02-24T00:02:34.352Z,81.54
2019-02-24T00:05:03.916Z,82.33
2019-02-24T00:07:33.529Z,82.33
2019-02-24T00:10:03.055Z,82.32
2019-02-24T00:12:32.712Z,82.50
2019-02-24T00:15:02.249Z,82.81
2019-02-24T00:17:31.806Z,82.81
2019-02-24T00:20:01.463Z,82.73
2019-02-24T00:22:30.985Z,82.01
2019-02-24T00:25:00.578Z,83.26
2019-02-24T00:27:30.238Z,83.23
2019-02-24T00:29:59.802Z,83.23
2019-02-24T00:32:29.322Z,83.10
2019-02-24T00:34:58.873Z,82.43
2019-02-24T00:37:28.415Z,82.15
2019-02-24T00:39:58.121Z,82.42
2019-02-24T00:42:27.632Z,82.42
2019-02-24T00:44:57.235Z,81.43
2019-02-24T00:47:26.790Z,82.02
2019-02-24T00:49:56.328Z,81.54
2019-02-24T00:52:25.866Z,81.54
2019-02-24T00:54:55.524Z,83.14
2019-02-24T00:57:25.076Z,83.14
2019-02-24T00:59:54.628Z,84.34
2019-02-24T01:02:24.454Z,84.57
2019-02-24T01:04:53.970Z,85.13
2019-02-24T01:07:23.574Z,85.44
2019-02-24T01:09:53.115Z,85.44
2019-02-24T01:12:22.845Z,86.19
2019-02-24T01:14:52.392Z,86.94
2019-02-24T01:17:21.949Z,86.94
2019-02-24T01:19:51.635Z,87.92
2019-02-24T01:22:21.238Z,87.92
2019-02-24T01:24:50.870Z,88.91
2019-02-24T01:27:20.408Z,88.77
2019-02-24T01:29:49.971Z,88.75
2019-02-24T01:32:19.521Z,89.50
2019-02-24T01:34:49.150Z,89.50
2019-02-24T01:37:18.674Z,89.38
2019-02-24T01:39:48.192Z,90.17
2019-02-24T01:42:17.745Z,90.53
2019-02-24T01:44:47.293Z,90.60
2019-02-24T01:47:16.907Z,90.60
2019-02-24T01:49:46.482Z,89.26
2019-02-24T01:52:16.022Z,89.58
2019-02-24T01:54:45.634Z,89.55
2019-02-24T01:57:15.207Z,89.78
2019-02-24T01:59:44.833Z,89.89
2019-02-24T02:02:14.418Z,89.89
2019-02-24T02:04:43.980Z,90.42
2019-02-24T02:07:13.505Z,90.42
2019-02-24T02:09:43.148Z,91.43
2019-02-24T02:12:12.694Z,91.56
2019-02-24T02:14:42.354Z,91.56
2019-02-24T02:17:11.959Z,92.17
2019-02-24T02:19:41.520Z,92.09
2019-02-24T02:22:11.079Z,92.26
2019-02-24T02:24:40.708Z,92.26
2019-02-24T02:27:10.231Z,92.85
2019-02-24T02:29:39.793Z,93.12
2019-02-24T02:32:09.325Z,93.18
2019-02-24T02:34:38.859Z,93.26
2019-02-24T02:37:08.445Z,94.42
2019-02-24T02:39:38.257Z,94.73
2019-02-24T02:42:07.823Z,94.73
2019-02-24T02:44:37.390Z,95.09
2019-02-24T02:47:07.044Z,95.31
2019-02-24T02:49:36.677Z,95.31
2019-02-24T02:52:06.211Z,95.66
2019-02-24T02:54:35.771Z,95.78
2019-02-24T02:57:05.304Z,95.86
2019-02-24T02:59:34.840Z,95.86
2019-02-24T03:02:04.362Z,95.70
2019-02-24T03:04:34.027Z,95.70
2019-02-24T03:07:25.402Z,95.44
2019-02-24T03:09:54.985Z,95.04
2019-02-24T03:12:24.510Z,94.59
2019-02-24T03:14:54.046Z,94.12
2019-02-24T03:17:24.482Z,93.71
2019-02-24T03:19:54.019Z,93.71
2019-02-24T03:22:23.544Z,92.96
2019-02-24T03:24:53.115Z,92.12
2019-02-24T03:27:22.786Z,92.12
2019-02-24T03:29:52.326Z,91.37
2019-02-24T03:32:21.903Z,91.21
2019-02-24T03:34:51.458Z,90.52
2019-02-24T03:37:21.024Z,90.45
2019-02-24T03:39:50.575Z,90.40
2019-02-24T03:42:20.103Z,90.40
2019-02-24T03:44:49.638Z,90.44
2019-02-24T03:47:19.183Z,90.10
2019-02-24T03:49:48.776Z,89.79
2019-02-24T03:52:18.304Z,89.33
2019-02-24T03:54:47.858Z,89.45
2019-02-24T03:57:17.405Z,88.98
2019-02-24T03:59:47.043Z,88.98
2019-02-24T04:02:16.613Z,89.74
2019-02-24T04:04:46.182Z,89.79
2019-02-24T04:07:15.730Z,89.79
2019-02-24T04:09:45.262Z,89.36
2019-02-24T04:12:14.811Z,89.31
2019-02-24T04:14:44.367Z,88.38
2019-02-24T04:17:13.920Z,88.75
2019-02-24T04:19:43.512Z,88.05
2019-02-24T04:22:13.127Z,88.54
2019-02-24T04:24:42.654Z,89.76
2019-02-24T04:27:12.241Z,89.57
2019-02-24T04:29:41.823Z,90.03
2019-02-24T04:32:11.501Z,90.08
2019-02-24T04:34:41.129Z,89.13
2019-02-24T04:37:10.657Z,89.13
2019-02-24T04:39:40.202Z,90.49
2019-02-24T04:42:09.765Z,90.49
2019-02-24T04:44:39.304Z,90.02
2019-02-24T04:47:08.946Z,90.81
2019-02-24T04:49:38.484Z,90.22
2019-02-24T04:52:08.011Z,91.06
2019-02-24T04:54:37.574Z,91.34
2019-02-24T04:57:07.134Z,91.34
2019-02-24T04:59:36.766Z,90.01
2019-02-24T05:02:06.329Z,90.03
2019-02-24T05:04:35.988Z,90.68
2019-02-24T05:07:05.517Z,89.71
2019-02-24T05:09:35.068Z,89.71
2019-02-24T05:12:04.615Z,89.33
2019-02-24T05:14:34.163Z,88.77
2019-02-24T05:17:03.763Z,88.77
2019-02-24T05:19:33.411Z,89.21
2019-02-24T05:22:03.190Z,89.59
2019-02-24T05:24:32.763Z,90.15
2019-02-24T05:27:02.397Z,90.15
2019-02-24T05:29:31.927Z,90.49
2019-02-24T05:32:01.478Z,90.19
2019-02-24T05:34:31.019Z,90.19
2019-02-24T05:37:00.575Z,90.36
2019-02-24T05:39:30.149Z,90.10
2019-02-24T05:41:59.687Z,89.11
2019-02-24T05:44:29.280Z,89.16
2019-02-24T05:46:58.804Z,89.16
2019-02-24T05:49:28.463Z,87.42
2019-02-24T05:51:58.105Z,86.93
2019-02-24T05:54:27.722Z,86.93
2019-02-24T05:56:57.320Z,87.22
2019-02-24T05:59:26.940Z,86.22
2019-02-24T06:01:56.463Z,85.69
2019-02-24T06:04:26.078Z,85.08
2019-02-24T06:06:55.639Z,84.31
2019-02-24T06:09:25.289Z,84.03
2019-02-24T06:11:55.115Z,83.70
2019-02-24T06:14:24.659Z,82.38
2019-02-24T06:16:54.267Z,79.03
2019-02-24T06:19:23.969Z,79.31
2019-02-24T06:21:53.523Z,78.50
2019-02-24T06:24:23.120Z,77.98
2019-02-24T06:26:52.650Z,77.23
2019-02-24T06:29:22.195Z,76.91
2019-02-24T06:31:51.741Z,76.97
2019-02-24T06:34:21.274Z,76.08
2019-02-24T06:36:50.862Z,75.28
2019-02-24T06:39:20.472Z,74.75
2019-02-24T06:41:50.081Z,73.99
2019-02-24T06:44:19.666Z,74.37
2019-02-24T06:46:49.249Z,74.96
2019-02-24T06:49:18.781Z,72.94
2019-02-24T06:51:48.313Z,73.11
2019-02-24T06:54:17.891Z,73.53
2019-02-24T06:56:47.505Z,74.10
2019-02-24T06:59:17.052Z,73.71
2019-02-24T07:01:46.582Z,72.93
2019-02-24T07:04:16.137Z,73.13
2019-02-24T07:06:45.695Z,73.73
2019-02-24T07:09:15.245Z,72.42
2019-02-24T07:11:44.824Z,73.32
2019-02-24T07:14:14.351Z,72.41
2019-02-24T07:16:43.909Z,71.60
2019-02-24T07:19:13.457Z,71.50
2019-02-24T07:21:43.024Z,71.42
2019-02-24T07:24:12.570Z,70.89
2019-02-24T07:26:42.122Z,69.43
2019-02-24T07:29:11.696Z,68.14
2019-02-24T07:31:41.222Z,68.79
2019-02-24T07:34:10.778Z,66.21
2019-02-24T07:36:40.328Z,66.33
2019-02-24T07:39:09.877Z,64.44
2019-02-24T07:41:39.429Z,63.96
2019-02-24T07:44:08.971Z,64.93
2019-02-24T07:46:38.525Z,64.54
2019-02-24T07:49:08.097Z,63.93
2019-02-24T07:51:37.653Z,64.48
2019-02-24T07:54:07.242Z,65.88
2019-02-24T07:56:37.392Z,67.25
2019-02-24T07:59:07.009Z,68.81
2019-02-24T08:01:36.637Z,68.71
2019-02-24T08:04:06.193Z,70.02
2019-02-24T08:06:35.862Z,70.41
2019-02-24T08:09:05.422Z,68.72
2019-02-24T08:11:34.975Z,69.21
2019-02-24T08:14:04.583Z,66.09
2019-02-24T08:16:34.132Z,63.03
2019-02-24T08:19:03.719Z,63.67
2019-02-24T08:21:33.281Z,63.33
2019-02-24T08:24:02.872Z,63.99
2019-02-24T08:26:32.405Z,65.40
2019-02-24T08:29:01.959Z,65.64
2019-02-24T08:31:31.538Z,66.80
2019-02-24T08:34:01.063Z,67.66
2019-02-24T08:36:30.582Z,67.33
2019-02-24T08:39:00.158Z,67.70
2019-02-24T08:41:29.756Z,65.30
2019-02-24T08:43:59.340Z,63.64
2019-02-24T08:46:28.906Z,63.12
2019-02-24T08:48:58.515Z,62.18
2019-02-24T08:51:28.184Z,60.27
2019-02-24T08:53:57.889Z,61.63
2019-02-24T08:56:27.506Z,62.77
2019-02-24T08:58:57.137Z,63.15
2019-02-24T09:01:26.711Z,62.97
2019-02-24T09:03:56.354Z,60.56
2019-02-24T09:06:25.960Z,60.28
2019-02-24T09:08:55.505Z,61.84
2019-02-24T09:11:25.140Z,62.37
2019-02-24T09:13:54.755Z,61.95
2019-02-24T09:16:24.367Z,63.13
2019-02-24T09:18:53.942Z,61.41
2019-02-24T09:21:23.614Z,60.51
2019-02-24T09:23:53.228Z,57.93
2019-02-24T09:26:22.925Z,59.89
2019-02-24T09:28:52.448Z,60.72
2019-02-24T09:31:22.122Z,59.40
2019-02-24T09:33:51.787Z,59.94
2019-02-24T09:36:21.387Z,60.18
2019-02-24T09:38:50.991Z,60.46
2019-02-24T09:41:20.737Z,61.60
2019-02-24T09:43:50.359Z,62.95
2019-02-24T09:46:20.067Z,63.30
2019-02-24T09:48:49.630Z,62.45
2019-02-24T09:51:19.187Z,63.78
2019-02-24T09:53:48.885Z,64.04
2019-02-24T09:56:18.521Z,61.80
2019-02-24T09:58:48.203Z,61.81
2019-02-24T10:01:17.809Z,61.57
2019-02-24T10:03:47.405Z,63.43
2019-02-24T10:06:16.980Z,59.73
2019-02-24T10:08:46.702Z,58.21
2019-02-24T10:11:16.454Z,59.21
2019-02-24T10:13:45.989Z,60.18
2019-02-24T10:16:15.698Z,60.69
2019-02-24T10:18:45.372Z,56.46
2019-02-24T10:21:15.012Z,54.98
2019-02-24T10:23:44.548Z,57.07
2019-02-24T10:26:14.225Z,56.57
2019-02-24T10:28:44.001Z,59.54
2019-02-24T10:31:19.868Z,61.68
2019-02-24T10:33:45.053Z,62.61
2019-02-24T10:36:14.608Z,61.44
2019-02-24T10:38:44.278Z,62.80
2019-02-24T10:41:13.811Z,64.15
2019-02-24T10:43:43.539Z,64.67
2019-02-24T10:46:13.114Z,65.44
2019-02-24T10:48:42.647Z,65.69
2019-02-24T10:51:12.266Z,66.07
2019-02-24T10:53:41.807Z,66.87
2019-02-24T10:56:12.496Z,67.34
2019-02-24T10:58:42.049Z,66.90
2019-02-24T11:01:11.597Z,65.96
2019-02-24T11:03:41.128Z,65.61
2019-02-24T11:06:10.761Z,63.86
2019-02-24T11:08:40.322Z,62.89
2019-02-24T11:11:09.997Z,62.12
2019-02-24T11:13:39.526Z,61.13
2019-02-24T11:16:09.149Z,60.66
2019-02-24T11:18:38.881Z,61.52
2019-02-24T11:21:08.490Z,60.12
2019-02-24T11:23:38.173Z,58.77
2019-02-24T11:26:07.702Z,56.97
2019-02-24T11:28:37.411Z,58.06
2019-02-24T11:31:06.950Z,58.45
2019-02-24T11:33:36.518Z,59.41
2019-02-24T11:36:06.076Z,62.82
2019-02-24T11:38:35.606Z,64.14
2019-02-24T11:41:05.147Z,64.53
2019-02-24T11:43:34.795Z,65.04
2019-02-24T11:46:05.259Z,65.73
2019-02-24T11:48:34.830Z,65.15
2019-02-24T11:51:04.484Z,64.16
2019-02-24T11:53:34.051Z,65.00
2019-02-24T11:56:03.606Z,62.17
2019-02-24T11:58:33.192Z,63.05
2019-02-24T12:01:02.896Z,59.45
2019-02-24T12:03:32.440Z,57.18
2019-02-24T12:06:02.034Z,55.36
2019-02-24T12:08:31.795Z,54.30
2019-02-24T12:11:01.405Z,54.49
2019-02-24T12:13:31.058Z,55.13
2019-02-24T12:16:00.656Z,55.47
2019-02-24T12:18:30.317Z,55.50
2019-02-24T12:20:59.868Z,57.12
2019-02-24T12:23:29.419Z,59.75
2019-02-24T12:25:58.987Z,59.78
2019-02-24T12:28:28.557Z,59.17
2019-02-24T12:30:58.271Z,60.65
2019-02-24T12:33:27.813Z,60.13
2019-02-24T12:35:57.351Z,62.13
2019-02-24T12:38:27.003Z,61.78
2019-02-24T12:40:56.549Z,63.65
2019-02-24T12:43:26.242Z,62.24
2019-02-24T12:45:55.809Z,61.04
2019-02-24T12:48:25.337Z,61.99
2019-02-24T12:50:54.893Z,62.43
2019-02-24T12:53:24.527Z,63.91
2019-02-24T12:55:54.097Z,63.39
2019-02-24T12:58:23.639Z,62.57
2019-02-24T13:00:53.576Z,62.61
2019-02-24T13:03:24.195Z,62.60
2019-02-24T13:05:53.932Z,63.69
2019-02-24T13:08:23.491Z,61.79
2019-02-24T13:10:53.122Z,59.17
2019-02-24T13:13:22.645Z,59.83
2019-02-24T13:15:52.276Z,60.89
2019-02-24T13:18:21.880Z,62.22
2019-02-24T13:20:51.672Z,62.67
2019-02-24T13:23:21.228Z,63.11
2019-02-24T13:25:50.795Z,65.13
2019-02-24T13:28:20.340Z,64.39
2019-02-24T13:30:49.886Z,63.44
2019-02-24T13:33:19.446Z,63.54
2019-02-24T13:35:48.998Z,63.29
2019-02-24T13:38:18.546Z,60.56
2019-02-24T13:40:48.134Z,62.95
2019-02-24T13:43:17.683Z,62.63
2019-02-24T13:45:47.234Z,62.21
2019-02-24T13:48:16.772Z,63.05
2019-02-24T13:50:46.436Z,62.20
2019-02-24T13:53:15.980Z,63.76
2019-02-24T13:55:45.598Z,66.08
2019-02-24T13:58:15.263Z,67.18
2019-02-24T14:00:44.899Z,67.31
2019-02-24T14:03:14.534Z,68.20
2019-02-24T14:05:44.111Z,69.23
2019-02-24T14:08:13.769Z,70.01
2019-02-24T14:10:43.408Z,70.83
2019-02-24T14:13:12.970Z,70.72
2019-02-24T14:15:42.528Z,73.76
2019-02-24T14:18:12.107Z,77.58
2019-02-24T14:20:41.702Z,81.00
2019-02-24T14:23:11.315Z,83.31
2019-02-24T14:25:40.925Z,85.17
2019-02-24T14:28:10.565Z,86.54
2019-02-24T14:30:40.147Z,87.98
2019-02-24T14:33:09.872Z,90.30
2019-02-24T14:35:39.424Z,89.46
2019-02-24T14:38:09.063Z,89.81
2019-02-24T14:40:38.655Z,90.86
2019-02-24T14:43:08.264Z,91.77
2019-02-24T14:45:37.804Z,91.85
2019-02-24T14:48:07.351Z,92.10
2019-02-24T14:50:36.903Z,90.63
2019-02-24T14:53:06.448Z,91.23
2019-02-24T14:55:36.024Z,90.59
2019-02-24T14:58:05.583Z,89.22
2019-02-24T15:00:35.254Z,88.73
2019-02-24T15:03:04.841Z,88.96
2019-02-24T15:05:34.588Z,88.85
2019-02-24T15:08:04.141Z,89.14
2019-02-24T15:10:33.733Z,88.80
2019-02-24T15:13:03.296Z,87.03
2019-02-24T15:15:33.521Z,87.53
2019-02-24T15:18:03.305Z,86.57
2019-02-24T15:20:32.906Z,84.99
2019-02-24T15:23:02.463Z,85.79
2019-02-24T15:25:32.083Z,85.92
2019-02-24T15:28:01.633Z,83.39
2019-02-24T15:30:32.160Z,83.42
2019-02-24T15:33:01.718Z,82.81
2019-02-24T15:35:31.253Z,83.09
2019-02-24T15:38:00.814Z,83.28
2019-02-24T15:40:30.498Z,83.05
2019-02-24T15:43:00.107Z,82.41
2019-02-24T15:45:29.638Z,82.01
2019-02-24T15:47:59.230Z,81.30
2019-02-24T15:50:28.818Z,80.90
2019-02-24T15:52:58.414Z,81.53
2019-02-24T15:55:28.002Z,82.30
2019-02-24T15:57:57.568Z,82.47
2019-02-24T16:00:27.158Z,82.52
2019-02-24T16:03:01.600Z,82.67
2019-02-24T16:05:28.204Z,83.49
2019-02-24T16:07:57.814Z,82.88
2019-02-24T16:10:27.354Z,83.39
2019-02-24T16:12:56.980Z,83.54
2019-02-24T16:15:26.552Z,84.57
2019-02-24T16:17:56.115Z,85.83
2019-02-24T16:20:26.365Z,86.53
2019-02-24T16:22:56.031Z,87.00
2019-02-24T16:25:25.684Z,85.89
2019-02-24T16:27:55.497Z,84.93
2019-02-24T16:30:25.093Z,86.25
2019-02-24T16:32:54.629Z,86.93
2019-02-24T16:35:24.242Z,86.95
2019-02-24T16:37:53.843Z,87.52
2019-02-24T16:40:23.525Z,86.41
2019-02-24T16:42:53.264Z,86.15
2019-02-24T16:45:22.908Z,87.45
2019-02-24T16:47:52.463Z,87.67
2019-02-24T16:50:22.113Z,88.43
2019-02-24T16:52:51.806Z,88.57
2019-02-24T16:55:21.392Z,89.13
2019-02-24T16:57:51.027Z,89.41
2019-02-24T17:00:20.890Z,90.35
2019-02-24T17:02:50.455Z,91.02
2019-02-24T17:05:20.059Z,91.53
2019-02-24T17:07:49.682Z,92.04
2019-02-24T17:10:19.840Z,92.28
2019-02-24T17:12:49.484Z,92.99
2019-02-24T17:15:19.062Z,93.42
2019-02-24T17:17:49.118Z,93.66
2019-02-24T17:20:19.229Z,94.13
2019-02-24T17:22:48.841Z,94.90
2019-02-24T17:25:21.318Z,95.00
2019-02-24T17:27:53.919Z,95.07
2019-02-24T17:30:24.107Z,94.90
2019-02-24T17:32:53.906Z,94.98
2019-02-24T17:35:23.800Z,95.16
2019-02-24T17:37:53.467Z,95.29
2019-02-24T17:40:23.564Z,95.06
2019-02-24T17:42:53.211Z,95.10
2019-02-24T17:45:23.041Z,94.43
2019-02-24T17:47:55.891Z,94.00
2019-02-24T17:50:25.611Z,93.91
2019-02-24T17:52:55.380Z,93.75
2019-02-24T17:55:25.548Z,93.76
2019-02-24T17:57:55.207Z,93.99
2019-02-24T18:00:30.498Z,93.97
2019-02-24T18:03:00.162Z,93.83
2019-02-24T18:05:29.853Z,93.67
2019-02-24T18:07:59.472Z,93.75
2019-02-24T18:10:29.119Z,93.79
2019-02-24T18:12:58.734Z,93.76
2019-02-24T18:15:28.330Z,93.64
2019-02-24T18:17:57.873Z,93.55
2019-02-24T18:20:27.423Z,93.34
2019-02-24T18:22:57.013Z,93.45
2019-02-24T18:25:26.650Z,93.33
2019-02-24T18:27:56.232Z,93.25
2019-02-24T18:30:25.823Z,93.39
2019-02-24T18:32:55.391Z,93.18
2019-02-24T18:35:25.015Z,92.93
2019-02-24T18:37:54.768Z,93.02
2019-02-24T18:40:24.351Z,93.02
2019-02-24T18:43:00.147Z,92.98
2019-02-24T18:45:25.238Z,93.11
2019-02-24T18:47:54.853Z,93.33
2019-02-24T18:50:24.473Z,93.60
2019-02-24T18:52:54.061Z,93.60
2019-02-24T18:55:23.762Z,93.86
2019-02-24T18:57:53.414Z,93.81
2019-02-24T19:00:23.039Z,93.96
2019-02-24T19:02:54.815Z,93.88
2019-02-24T19:05:23.941Z,93.67
2019-02-24T19:07:53.490Z,93.67
2019-02-24T19:10:23.057Z,93.53
2019-02-24T19:12:52.593Z,93.53
2019-02-24T19:15:22.176Z,94.23
2019-02-24T19:17:51.742Z,94.23
2019-02-24T19:20:21.377Z,94.19
2019-02-24T19:22:50.930Z,94.24
2019-02-24T19:25:20.505Z,94.40
2019-02-24T19:27:50.055Z,94.40
2019-02-24T19:30:19.682Z,94.36
2019-02-24T19:32:49.255Z,94.36
2019-02-24T19:35:18.829Z,94.50
2019-02-24T19:37:48.389Z,94.34
2019-02-24T19:40:18.173Z,94.22
2019-02-24T19:42:47.727Z,93.98
2019-02-24T19:45:17.895Z,93.97
2019-02-24T19:47:47.453Z,93.92
2019-02-24T19:50:17.459Z,93.88
2019-02-24T19:52:47.075Z,93.75
2019-02-24T19:55:16.645Z,93.76
2019-02-24T19:57:46.202Z,93.75
2019-02-24T20:00:18.693Z,94.10
2019-02-24T20:02:48.373Z,94.10
2019-02-24T20:05:18.044Z,94.41
2019-02-24T20:07:47.742Z,94.67
2019-02-24T20:10:18.901Z,95.64
2019-02-24T20:12:48.469Z,96.24
2019-02-24T20:15:18.153Z,96.68
2019-02-24T20:17:47.724Z,96.68
2019-02-24T20:20:17.395Z,97.05
2019-02-24T20:22:47.011Z,97.97
2019-02-24T20:25:16.697Z,97.94
2019-02-24T20:27:46.240Z,97.94
2019-02-24T20:30:18.777Z,97.71
2019-02-24T20:32:48.582Z,97.22
2019-02-24T20:35:18.173Z,97.22
2019-02-24T20:37:47.881Z,97.18
2019-02-24T20:40:17.435Z,97.25
2019-02-24T20:42:47.021Z,97.66
2019-02-24T20:45:17.603Z,98.23
2019-02-24T20:47:47.192Z,98.51
2019-02-24T20:50:17.826Z,98.35
2019-02-24T20:52:47.402Z,98.17
2019-02-24T20:55:17.090Z,98.17
2019-02-24T20:57:47.260Z,97.90
2019-02-24T21:00:22.860Z,97.50
2019-02-24T21:02:52.431Z,97.07
2019-02-24T21:05:21.978Z,96.78
2019-02-24T21:07:51.600Z,96.78
2019-02-24T21:10:21.179Z,97.27
2019-02-24T21:12:50.741Z,97.72
2019-02-24T21:15:20.330Z,98.07
2019-02-24T21:17:49.900Z,98.15
2019-02-24T21:20:21.411Z,98.22
2019-02-24T21:22:51.089Z,98.10
2019-02-24T21:25:20.688Z,98.08
2019-02-24T21:27:50.296Z,98.05
2019-02-24T21:30:19.941Z,97.85
2019-02-24T21:32:49.499Z,97.85
2019-02-24T21:35:19.119Z,97.83
2019-02-24T21:37:48.719Z,98.05
2019-02-24T21:40:18.463Z,98.11
2019-02-24T21:42:48.013Z,98.09
2019-02-24T21:45:18.746Z,98.09
2019-02-24T21:47:48.304Z,97.77
2019-02-24T21:50:17.998Z,97.68
2019-02-24T21:52:47.530Z,97.93
2019-02-24T21:55:17.138Z,97.93
2019-02-24T21:57:46.698Z,97.55
2019-02-24T22:00:21.119Z,97.37
2019-02-24T22:02:50.643Z,97.43
2019-02-24T22:05:20.193Z,97.55
2019-02-24T22:07:49.726Z,97.70
2019-02-24T22:10:19.343Z,97.75
2019-02-24T22:12:48.993Z,98.00
2019-02-24T22:15:19.038Z,98.15
2019-02-24T22:17:48.603Z,98.46
2019-02-24T22:20:20.140Z,98.95
2019-02-24T22:22:49.785Z,99.15
2019-02-24T22:25:19.488Z,98.84
2019-02-24T22:27:49.043Z,98.37
2019-02-24T22:30:18.811Z,98.27
2019-02-24T22:32:48.511Z,98.23
2019-02-24T22:35:18.046Z,98.70
2019-02-24T22:37:47.633Z,99.09
2019-02-24T22:40:17.349Z,99.24
2019-02-24T22:42:46.877Z,99.42
2019-02-24T22:45:17.260Z,99.59
2019-02-24T22:47:46.987Z,99.68
2019-02-24T22:50:16.632Z,99.76
2019-02-24T22:52:46.232Z,99.94
2019-02-24T22:55:15.827Z,99.94
2019-02-24T22:57:45.421Z,99.99
2019-02-24T23:00:50.319Z,99.51
2019-02-24T23:03:19.963Z,99.15
2019-02-24T23:05:49.505Z,99.38
2019-02-24T23:08:19.049Z,99.41
2019-02-24T23:10:48.743Z,99.44
2019-02-24T23:13:18.281Z,99.63
2019-02-24T23:15:47.836Z,100.00
2019-02-24T23:18:17.382Z,100.00
2019-02-24T23:20:47.099Z,100.00
2019-02-24T23:23:16.640Z,100.00
2019-02-24T23:25:46.212Z,100.00
2019-02-24T23:28:15.896Z,100.00
2019-02-24T23:30:45.607Z,100.00
2019-02-24T23:33:15.316Z,99.78
2019-02-24T23:35:44.938Z,99.55
2019-02-24T23:38:14.614Z,99.51
2019-02-24T23:40:44.171Z,99.38
2019-02-24T23:43:13.794Z,99.33
2019-02-24T23:45:43.383Z,99.42
2019-02-24T23:48:13.002Z,99.54
